Time;durP1;ratioP1;P1;durP2;ratioP2;P2;SDS_P1;SDS_P2;PMS_P1;PMS_P2;Temp;Humidity;BMP_temperature;BMP_pressure;BME280_temperature;BME280_humidity;BME280_pressure;Samples;Min_cycle;Max_cycle;Signal;HPM_P1;HPM_P2
2022/11/09 00:00:36;;;;;;;156.50;112.77;;;;;;;;;;5032007;28;20191;-35
2022/11/09 00:03:02;;;;;;;151.00;105.43;;;;;;;;;;5033037;28;20172;-35
2022/11/09 00:05:28;;;;;;;135.97;101.13;;;;;;;;;;5032183;28;20176;-35
2022/11/09 00:07:54;;;;;;;153.57;107.40;;;;;;;;;;5032718;28;20186;-35
2022/11/09 00:10:20;;;;;;;143.70;104.20;;;;;;;;;;5034070;28;20199;-35
2022/11/09 00:12:46;;;;;;;169.30;117.83;;;;;;;;;;5030861;28;20179;-35
2022/11/09 00:15:12;;;;;;;152.10;109.00;;;;;;;;;;5032286;28;20172;-35
2022/11/09 00:17:39;;;;;;;140.17;100.77;;;;;;;;;;5031299;28;20198;-35
2022/11/09 00:20:05;;;;;;;156.03;105.33;;;;;;;;;;5033338;28;20172;-35
2022/11/09 00:22:31;;;;;;;149.57;106.80;;;;;;;;;;5035732;28;20230;-35
2022/11/09 00:24:57;;;;;;;144.13;105.90;;;;;;;;;;5032815;28;20636;-35
2022/11/09 00:27:23;;;;;;;155.60;111.70;;;;;;;;;;5029498;28;20206;-35
2022/11/09 00:29:49;;;;;;;158.50;114.97;;;;;;;;;;5031403;28;20557;-36
2022/11/09 00:32:15;;;;;;;166.60;117.60;;;;;;;;;;5035878;28;20290;-35
2022/11/09 00:34:43;;;;;;;145.67;103.90;;;;;;;;;;5029903;28;20422;-35
2022/11/09 00:37:09;;;;;;;146.10;104.60;;;;;;;;;;5030147;28;20608;-35
2022/11/09 00:39:35;;;;;;;161.30;114.03;;;;;;;;;;5030314;28;20967;-35
2022/11/09 00:42:01;;;;;;;148.90;106.60;;;;;;;;;;5035632;28;20711;-35
2022/11/09 00:44:27;;;;;;;142.47;105.73;;;;;;;;;;5033094;28;20893;-35
2022/11/09 00:46:53;;;;;;;147.63;104.27;;;;;;;;;;5030685;28;20463;-35
2022/11/09 00:49:19;;;;;;;158.63;114.10;;;;;;;;;;5030813;28;20187;-35
2022/11/09 00:51:45;;;;;;;157.40;108.03;;;;;;;;;;5032456;28;20692;-35
2022/11/09 00:54:11;;;;;;;136.23;100.80;;;;;;;;;;5033617;28;20478;-35
2022/11/09 00:56:37;;;;;;;134.33;98.83;;;;;;;;;;5027438;28;20253;-35
2022/11/09 00:59:03;;;;;;;140.40;100.97;;;;;;;;;;5030093;28;20171;-35
2022/11/09 01:01:29;;;;;;;135.30;100.73;;;;;;;;;;5031215;28;20183;-34
2022/11/09 01:04:14;;;;;;;153.03;106.67;;;;;;;;;;5032374;28;20233;-35
2022/11/09 01:06:40;;;;;;;150.77;108.93;;;;;;;;;;5034455;28;20181;-35
2022/11/09 01:09:06;;;;;;;138.60;101.87;;;;;;;;;;5030342;28;20522;-35
2022/11/09 01:11:32;;;;;;;147.30;108.20;;;;;;;;;;5030173;28;20184;-36
2022/11/09 01:13:59;;;;;;;156.13;109.73;;;;;;;;;;5031081;28;20168;-36
2022/11/09 01:16:25;;;;;;;145.23;107.00;;;;;;;;;;5009587;28;21208;-35
2022/11/09 01:18:55;;;;;;;139.03;103.67;;;;;;;;;;5033363;28;20199;-35
2022/11/09 01:21:21;;;;;;;149.80;107.90;;;;;;;;;;5033245;28;20172;-35
2022/11/09 01:23:47;;;;;;;150.73;105.53;;;;;;;;;;5028762;28;20169;-35
2022/11/09 01:26:14;;;;;;;143.03;103.73;;;;;;;;;;5023852;28;20188;-35
2022/11/09 01:28:40;;;;;;;137.43;99.70;;;;;;;;;;5028353;28;20910;-35
2022/11/09 01:31:08;;;;;;;139.57;103.60;;;;;;;;;;5032317;28;20648;-35
2022/11/09 01:33:34;;;;;;;139.67;98.83;;;;;;;;;;5027257;28;20449;-35
2022/11/09 01:36:07;;;;;;;138.47;101.57;;;;;;;;;;5030138;28;20180;-35
2022/11/09 01:38:35;;;;;;;132.73;97.07;;;;;;;;;;5030873;28;20180;-35
2022/11/09 01:41:01;;;;;;;132.63;98.43;;;;;;;;;;5031705;28;20584;-36
2022/11/09 01:43:27;;;;;;;139.60;101.97;;;;;;;;;;5030885;28;20175;-34
2022/11/09 01:45:56;;;;;;;133.10;99.27;;;;;;;;;;5027849;28;20171;-35
2022/11/09 01:48:28;;;;;;;138.90;97.97;;;;;;;;;;5028460;28;20762;-35
2022/11/09 01:50:57;;;;;;;137.63;100.67;;;;;;;;;;5032507;28;20207;-35
2022/11/09 01:53:25;;;;;;;143.30;101.50;;;;;;;;;;5031522;28;20619;-35
2022/11/09 01:55:54;;;;;;;140.37;103.90;;;;;;;;;;5026747;28;20199;-36
2022/11/09 01:58:24;;;;;;;139.77;103.03;;;;;;;;;;5030450;28;20258;-35
2022/11/09 02:00:50;;;;;;;146.77;105.70;;;;;;;;;;5031254;28;20237;-35
2022/11/09 02:03:25;;;;;;;128.70;94.87;;;;;;;;;;5027795;28;21173;-35
2022/11/09 02:05:52;;;;;;;129.77;96.87;;;;;;;;;;5026795;28;20187;-35
2022/11/09 02:08:19;;;;;;;125.30;91.60;;;;;;;;;;5030464;28;20539;-35
2022/11/09 02:10:48;;;;;;;130.33;94.53;;;;;;;;;;5031375;28;20803;-35
2022/11/09 02:13:16;;;;;;;131.43;95.63;;;;;;;;;;5027887;28;20213;-35
2022/11/09 02:15:42;;;;;;;126.37;94.83;;;;;;;;;;5024288;28;20781;-35
2022/11/09 02:18:08;;;;;;;127.87;93.30;;;;;;;;;;5030793;28;20179;-35
2022/11/09 02:20:44;;;;;;;126.23;91.97;;;;;;;;;;5029948;28;20176;-35
2022/11/09 02:23:10;;;;;;;119.03;89.53;;;;;;;;;;5030408;28;20402;-35
2022/11/09 02:25:36;;;;;;;123.10;92.67;;;;;;;;;;5024182;28;20242;-35
2022/11/09 02:28:02;;;;;;;123.60;91.80;;;;;;;;;;5026857;28;20172;-35
2022/11/09 02:30:29;;;;;;;121.40;90.03;;;;;;;;;;5033503;28;20206;-35
2022/11/09 02:32:55;;;;;;;112.67;84.33;;;;;;;;;;5030118;28;20180;-35
2022/11/09 02:35:21;;;;;;;116.20;87.63;;;;;;;;;;5028033;28;20188;-36
2022/11/09 02:37:48;;;;;;;120.97;90.80;;;;;;;;;;5027800;28;20704;-35
2022/11/09 02:40:22;;;;;;;128.30;91.80;;;;;;;;;;5026091;28;20180;-35
2022/11/09 02:42:48;;;;;;;124.90;92.17;;;;;;;;;;5030738;28;20187;-35
2022/11/09 02:45:14;;;;;;;112.17;82.90;;;;;;;;;;5031584;28;20581;-36
2022/11/09 02:47:40;;;;;;;123.63;89.87;;;;;;;;;;5028551;28;20596;-35
2022/11/09 02:50:06;;;;;;;122.93;89.80;;;;;;;;;;5026876;28;20838;-35
2022/11/09 02:52:32;;;;;;;137.47;95.07;;;;;;;;;;5031288;28;20500;-35
2022/11/09 02:54:58;;;;;;;119.23;90.10;;;;;;;;;;5027203;28;20367;-35
2022/11/09 02:57:24;;;;;;;119.13;87.97;;;;;;;;;;5027166;28;20230;-35
2022/11/09 02:59:50;;;;;;;118.83;88.40;;;;;;;;;;5032340;28;20187;-35
2022/11/09 03:02:16;;;;;;;124.30;90.80;;;;;;;;;;5034963;28;20179;-34
2022/11/09 03:04:43;;;;;;;119.50;88.53;;;;;;;;;;5032109;28;20182;-35
2022/11/09 03:07:09;;;;;;;114.67;85.30;;;;;;;;;;5032214;28;20184;-35
2022/11/09 03:09:35;;;;;;;131.43;89.77;;;;;;;;;;5034044;28;20548;-35
2022/11/09 03:12:27;;;;;;;125.27;90.37;;;;;;;;;;5034685;28;20191;-35
2022/11/09 03:14:50;;;;;;;125.73;91.43;;;;;;;;;;5033011;28;20187;-35
2022/11/09 03:17:17;;;;;;;121.03;91.67;;;;;;;;;;5030366;28;20961;-35
2022/11/09 03:19:43;;;;;;;120.53;89.23;;;;;;;;;;5034459;28;20183;-36
2022/11/09 03:22:09;;;;;;;115.30;87.17;;;;;;;;;;5036275;28;20265;-35
2022/11/09 03:24:35;;;;;;;116.57;86.13;;;;;;;;;;5028608;28;20294;-35
2022/11/09 03:27:01;;;;;;;123.03;88.67;;;;;;;;;;5032664;28;20743;-36
2022/11/09 03:29:27;;;;;;;121.00;88.60;;;;;;;;;;5033464;28;20351;-35
2022/11/09 03:31:53;;;;;;;108.30;83.40;;;;;;;;;;5034161;28;20191;-35
2022/11/09 03:34:19;;;;;;;112.17;84.50;;;;;;;;;;5027106;28;20179;-36
2022/11/09 03:36:45;;;;;;;110.73;83.80;;;;;;;;;;5030638;28;20179;-35
2022/11/09 03:39:11;;;;;;;110.97;82.20;;;;;;;;;;5031262;28;20178;-36
2022/11/09 03:41:38;;;;;;;127.03;87.20;;;;;;;;;;5031596;28;20179;-35
2022/11/09 03:44:04;;;;;;;112.90;83.17;;;;;;;;;;5028962;28;20555;-35
2022/11/09 03:46:30;;;;;;;121.40;86.53;;;;;;;;;;5030313;28;20190;-35
2022/11/09 03:48:56;;;;;;;119.73;86.43;;;;;;;;;;5032093;28;20437;-35
2022/11/09 03:51:22;;;;;;;117.53;87.57;;;;;;;;;;5029903;28;20187;-35
2022/11/09 03:53:48;;;;;;;109.03;82.40;;;;;;;;;;5028772;28;20737;-35
2022/11/09 03:56:14;;;;;;;115.07;85.33;;;;;;;;;;5031111;28;20477;-35
2022/11/09 03:58:40;;;;;;;121.00;85.97;;;;;;;;;;5029922;28;20285;-35
2022/11/09 04:01:06;;;;;;;114.50;84.40;;;;;;;;;;5026884;28;20302;-36
2022/11/09 04:03:32;;;;;;;110.80;82.57;;;;;;;;;;5025963;28;20184;-35
2022/11/09 04:05:59;;;;;;;118.00;85.67;;;;;;;;;;5032551;28;20585;-35
2022/11/09 04:08:25;;;;;;;119.77;87.73;;;;;;;;;;5029234;28;20554;-35
2022/11/09 04:10:51;;;;;;;117.87;88.67;;;;;;;;;;5028366;28;20278;-35
2022/11/09 04:13:17;;;;;;;113.47;81.77;;;;;;;;;;5025601;28;20175;-35
2022/11/09 04:15:43;;;;;;;106.67;81.90;;;;;;;;;;5029831;28;20488;-35
2022/11/09 04:18:12;;;;;;;113.07;82.57;;;;;;;;;;5030812;28;20504;-35
2022/11/09 04:20:38;;;;;;;108.03;79.87;;;;;;;;;;5026819;28;20180;-35
2022/11/09 04:23:06;;;;;;;102.03;78.80;;;;;;;;;;5027822;28;20286;-36
2022/11/09 04:25:33;;;;;;;113.27;83.80;;;;;;;;;;5024441;28;20198;-35
2022/11/09 04:28:00;;;;;;;108.93;80.63;;;;;;;;;;5028698;28;20206;-35
2022/11/09 04:30:26;;;;;;;110.77;81.33;;;;;;;;;;5026665;28;20210;-35
2022/11/09 04:32:53;;;;;;;107.37;80.47;;;;;;;;;;5028880;28;20703;-35
2022/11/09 04:35:19;;;;;;;107.60;78.37;;;;;;;;;;5030251;28;20274;-35
2022/11/09 04:37:52;;;;;;;123.40;88.47;;;;;;;;;;5017518;28;20179;-34
2022/11/09 04:40:19;;;;;;;113.90;83.83;;;;;;;;;;5030926;28;20256;-34
2022/11/09 04:42:45;;;;;;;118.10;83.83;;;;;;;;;;5032377;28;21062;-35
2022/11/09 04:45:11;;;;;;;102.30;78.13;;;;;;;;;;5032992;28;20210;-35
2022/11/09 04:47:37;;;;;;;114.60;82.90;;;;;;;;;;5026787;28;20249;-35
2022/11/09 04:50:03;;;;;;;111.47;82.37;;;;;;;;;;5034916;28;20203;-35
2022/11/09 04:52:29;;;;;;;102.80;79.00;;;;;;;;;;5034043;28;20183;-35
2022/11/09 04:54:55;;;;;;;113.47;83.30;;;;;;;;;;5031706;28;20691;-35
2022/11/09 04:57:21;;;;;;;111.20;83.23;;;;;;;;;;5027777;28;20694;-35
2022/11/09 04:59:47;;;;;;;113.37;82.30;;;;;;;;;;5029763;28;20335;-35
2022/11/09 05:02:13;;;;;;;110.17;80.50;;;;;;;;;;5030851;28;20599;-35
2022/11/09 05:04:39;;;;;;;112.47;79.97;;;;;;;;;;5029415;28;20187;-35
2022/11/09 05:07:05;;;;;;;113.60;84.63;;;;;;;;;;5025824;28;20202;-35
2022/11/09 05:09:31;;;;;;;116.63;86.37;;;;;;;;;;5032945;28;20203;-35
2022/11/09 05:11:57;;;;;;;110.40;83.00;;;;;;;;;;5030646;28;20596;-35
2022/11/09 05:14:23;;;;;;;121.20;89.67;;;;;;;;;;5027378;28;20528;-35
2022/11/09 05:16:49;;;;;;;111.73;83.00;;;;;;;;;;5032719;28;20588;-35
2022/11/09 05:19:16;;;;;;;115.83;85.33;;;;;;;;;;5028478;28;21078;-36
2022/11/09 05:21:42;;;;;;;111.97;83.17;;;;;;;;;;5029108;28;20268;-35
2022/11/09 05:24:08;;;;;;;111.53;81.43;;;;;;;;;;5031296;28;20636;-35
2022/11/09 05:26:38;;;;;;;114.83;83.50;;;;;;;;;;5029418;28;20776;-36
2022/11/09 05:29:06;;;;;;;106.33;78.00;;;;;;;;;;5030562;28;20176;-36
2022/11/09 05:31:32;;;;;;;106.10;78.40;;;;;;;;;;5028259;28;20222;-35
2022/11/09 05:33:58;;;;;;;111.93;80.83;;;;;;;;;;5031605;28;20795;-36
2022/11/09 05:36:25;;;;;;;124.90;88.77;;;;;;;;;;5013511;28;20613;-35
2022/11/09 05:38:51;;;;;;;123.93;88.30;;;;;;;;;;5028949;28;20179;-35
2022/11/09 05:41:17;;;;;;;120.60;84.90;;;;;;;;;;5027770;28;20837;-35
2022/11/09 05:43:44;;;;;;;112.93;86.73;;;;;;;;;;5030313;28;20191;-36
2022/11/09 05:46:10;;;;;;;121.20;90.20;;;;;;;;;;5027035;28;20184;-35
2022/11/09 05:48:37;;;;;;;128.67;95.03;;;;;;;;;;5028892;28;20172;-35
2022/11/09 05:51:03;;;;;;;126.23;92.33;;;;;;;;;;5032338;28;20191;-35
2022/11/09 05:53:29;;;;;;;125.37;90.33;;;;;;;;;;5031153;28;20712;-35
2022/11/09 05:55:56;;;;;;;138.33;101.07;;;;;;;;;;5027016;28;20206;-34
2022/11/09 05:58:22;;;;;;;132.37;96.93;;;;;;;;;;5027678;28;20610;-35
2022/11/09 06:00:48;;;;;;;137.07;100.87;;;;;;;;;;5033196;28;20607;-35
2022/11/09 06:03:14;;;;;;;127.97;93.87;;;;;;;;;;5028972;28;20529;-35
2022/11/09 06:05:40;;;;;;;121.63;91.93;;;;;;;;;;5007782;28;20807;-35
2022/11/09 06:08:08;;;;;;;122.67;91.50;;;;;;;;;;5028457;28;20179;-34
2022/11/09 06:10:34;;;;;;;125.83;91.97;;;;;;;;;;5032234;28;20714;-35
2022/11/09 06:13:00;;;;;;;127.83;93.60;;;;;;;;;;5027422;28;20457;-35
2022/11/09 06:15:26;;;;;;;135.70;97.30;;;;;;;;;;5017092;28;20213;-35
2022/11/09 06:17:56;;;;;;;123.67;92.97;;;;;;;;;;5027324;28;20310;-35
2022/11/09 06:20:22;;;;;;;125.77;92.13;;;;;;;;;;5031022;28;20194;-36
2022/11/09 06:22:59;;;;;;;118.37;89.43;;;;;;;;;;5031166;28;20176;-35
2022/11/09 06:25:25;;;;;;;117.43;87.83;;;;;;;;;;5024907;28;20975;-36
2022/11/09 06:27:53;;;;;;;123.20;93.03;;;;;;;;;;5025450;28;20867;-36
2022/11/09 06:30:19;;;;;;;116.83;89.10;;;;;;;;;;5029992;28;20693;-35
2022/11/09 06:32:45;;;;;;;119.20;88.60;;;;;;;;;;5030326;28;20187;-36
2022/11/09 06:35:11;;;;;;;134.07;96.83;;;;;;;;;;5029324;28;20255;-35
2022/11/09 06:37:38;;;;;;;127.93;95.03;;;;;;;;;;5025477;28;20441;-36
2022/11/09 06:40:04;;;;;;;138.47;98.27;;;;;;;;;;5026137;28;20184;-35
2022/11/09 06:42:30;;;;;;;125.80;89.17;;;;;;;;;;5028723;28;20188;-35
2022/11/09 06:44:57;;;;;;;117.10;84.20;;;;;;;;;;5029240;28;20176;-35
2022/11/09 06:47:23;;;;;;;125.40;89.87;;;;;;;;;;5026171;28;20589;-36
2022/11/09 06:49:49;;;;;;;114.23;84.07;;;;;;;;;;5029405;28;20692;-36
2022/11/09 06:52:15;;;;;;;116.33;87.10;;;;;;;;;;5030277;28;20239;-35
2022/11/09 06:54:41;;;;;;;126.23;91.00;;;;;;;;;;5030839;28;20238;-36
2022/11/09 06:57:07;;;;;;;113.10;83.90;;;;;;;;;;5028835;28;20167;-36
2022/11/09 06:59:34;;;;;;;115.47;83.53;;;;;;;;;;5031662;28;20240;-35
2022/11/09 07:02:00;;;;;;;115.37;83.87;;;;;;;;;;5024152;28;20179;-36
2022/11/09 07:04:29;;;;;;;117.23;85.13;;;;;;;;;;5021917;28;20211;-35
2022/11/09 07:06:55;;;;;;;111.50;81.60;;;;;;;;;;5031183;28;21214;-35
2022/11/09 07:09:21;;;;;;;109.90;77.53;;;;;;;;;;5028562;28;20207;-36
2022/11/09 07:11:48;;;;;;;110.13;78.47;;;;;;;;;;5031043;28;20176;-36
2022/11/09 07:14:14;;;;;;;118.37;83.60;;;;;;;;;;5030792;28;20322;-35
2022/11/09 07:16:40;;;;;;;110.20;81.47;;;;;;;;;;5024940;28;20814;-35
2022/11/09 07:19:06;;;;;;;122.63;86.80;;;;;;;;;;5023024;28;20647;-35
2022/11/09 07:21:32;;;;;;;112.83;82.13;;;;;;;;;;5030878;28;20580;-35
2022/11/09 07:23:58;;;;;;;118.33;83.20;;;;;;;;;;5028561;28;20194;-36
2022/11/09 07:26:25;;;;;;;98.67;73.13;;;;;;;;;;5026867;28;20247;-36
2022/11/09 07:28:51;;;;;;;116.87;78.83;;;;;;;;;;5026275;28;20261;-36
2022/11/09 07:31:17;;;;;;;109.90;73.70;;;;;;;;;;5030238;28;20210;-36
2022/11/09 07:33:43;;;;;;;120.87;82.53;;;;;;;;;;5021658;28;20251;-36
2022/11/09 07:36:09;;;;;;;103.87;73.80;;;;;;;;;;5023297;28;20984;-36
2022/11/09 07:38:35;;;;;;;106.63;74.60;;;;;;;;;;5028355;28;20176;-35
2022/11/09 07:41:01;;;;;;;105.40;73.80;;;;;;;;;;5026600;28;20352;-37
2022/11/09 07:43:28;;;;;;;101.17;72.10;;;;;;;;;;5026827;28;20175;-36
2022/11/09 07:45:54;;;;;;;93.87;69.10;;;;;;;;;;5033875;28;20176;-37
2022/11/09 07:48:20;;;;;;;94.70;69.07;;;;;;;;;;5033257;28;20171;-37
2022/11/09 07:50:46;;;;;;;92.97;65.93;;;;;;;;;;5033025;28;20199;-37
2022/11/09 07:53:14;;;;;;;100.60;71.23;;;;;;;;;;5031870;28;20286;-36
2022/11/09 07:55:40;;;;;;;94.37;67.23;;;;;;;;;;5030623;28;21092;-36
2022/11/09 07:58:08;;;;;;;91.97;63.90;;;;;;;;;;5031864;28;20289;-36
2022/11/09 08:00:35;;;;;;;85.03;60.73;;;;;;;;;;5034124;28;20374;-36
2022/11/09 08:03:02;;;;;;;87.63;60.77;;;;;;;;;;5029780;28;20182;-36
2022/11/09 08:05:28;;;;;;;80.07;57.87;;;;;;;;;;5026178;28;20768;-36
2022/11/09 08:07:55;;;;;;;88.03;58.50;;;;;;;;;;5031956;28;20180;-36
2022/11/09 08:10:22;;;;;;;80.43;58.80;;;;;;;;;;5028101;28;20230;-37
2022/11/09 08:12:58;;;;;;;83.40;56.37;;;;;;;;;;5027127;28;20199;-37
2022/11/09 08:15:24;;;;;;;77.67;57.90;;;;;;;;;;5028928;28;20167;-37
2022/11/09 08:17:51;;;;;;;81.20;61.37;;;;;;;;;;5029607;28;20186;-37
2022/11/09 08:20:18;;;;;;;77.97;57.40;;;;;;;;;;5031008;28;20354;-37
2022/11/09 08:22:45;;;;;;;77.30;57.63;;;;;;;;;;5028096;28;20987;-37
2022/11/09 08:25:11;;;;;;;81.00;58.60;;;;;;;;;;5034370;28;20191;-36
2022/11/09 08:27:41;;;;;;;84.23;58.50;;;;;;;;;;5034353;28;20172;-37
2022/11/09 08:30:08;;;;;;;83.30;59.13;;;;;;;;;;5034034;28;20195;-37
2022/11/09 08:32:34;;;;;;;86.40;60.10;;;;;;;;;;5035736;28;20249;-36
2022/11/09 08:35:00;;;;;;;84.57;60.30;;;;;;;;;;5036082;28;20218;-37
2022/11/09 08:37:26;;;;;;;81.93;57.77;;;;;;;;;;5032198;28;20175;-36
2022/11/09 08:39:52;;;;;;;75.67;55.47;;;;;;;;;;5033415;28;20489;-36
2022/11/09 08:42:18;;;;;;;77.43;56.17;;;;;;;;;;5032062;28;20317;-37
2022/11/09 08:44:44;;;;;;;76.13;57.20;;;;;;;;;;5033812;28;20172;-36
2022/11/09 08:47:10;;;;;;;72.67;55.10;;;;;;;;;;5033706;28;20181;-37
2022/11/09 08:49:36;;;;;;;80.10;56.20;;;;;;;;;;5032488;28;20187;-36
2022/11/09 08:52:03;;;;;;;83.90;58.63;;;;;;;;;;5034784;28;20280;-36
2022/11/09 08:54:29;;;;;;;76.30;57.20;;;;;;;;;;5035545;28;20167;-36
2022/11/09 08:56:55;;;;;;;73.03;56.83;;;;;;;;;;5029720;28;20480;-37
2022/11/09 08:59:22;;;;;;;76.93;54.93;;;;;;;;;;5031853;28;20248;-37
2022/11/09 09:01:48;;;;;;;75.93;55.93;;;;;;;;;;5035352;28;20168;-37
2022/11/09 09:04:14;;;;;;;79.73;58.93;;;;;;;;;;5034193;28;20723;-36
2022/11/09 09:06:40;;;;;;;83.50;61.73;;;;;;;;;;5030280;28;20943;-36
2022/11/09 09:09:06;;;;;;;79.87;59.60;;;;;;;;;;5032235;28;20607;-37
2022/11/09 09:11:32;;;;;;;85.93;61.10;;;;;;;;;;5031460;28;20191;-37
2022/11/09 09:13:58;;;;;;;82.10;60.10;;;;;;;;;;5034676;28;20175;-36
2022/11/09 09:16:24;;;;;;;77.77;58.63;;;;;;;;;;5031463;28;20190;-36
2022/11/09 09:18:50;;;;;;;86.83;62.37;;;;;;;;;;5027254;28;20685;-36
2022/11/09 09:21:17;;;;;;;86.23;63.73;;;;;;;;;;5031584;28;20221;-36
2022/11/09 09:23:43;;;;;;;84.50;60.50;;;;;;;;;;5034939;28;20180;-36
2022/11/09 09:26:09;;;;;;;87.80;64.07;;;;;;;;;;5032284;28;20191;-36
2022/11/09 09:28:35;;;;;;;82.17;60.80;;;;;;;;;;5030755;28;20179;-36
2022/11/09 09:31:01;;;;;;;84.30;62.37;;;;;;;;;;5033519;28;20199;-36
2022/11/09 09:33:28;;;;;;;85.63;63.27;;;;;;;;;;5035633;28;20188;-36
2022/11/09 09:35:57;;;;;;;97.43;64.73;;;;;;;;;;5030149;28;20172;-36
2022/11/09 09:38:24;;;;;;;86.83;60.60;;;;;;;;;;5029179;28;20178;-36
2022/11/09 09:40:53;;;;;;;88.20;62.40;;;;;;;;;;5035363;28;20839;-36
2022/11/09 09:43:30;;;;;;;80.80;59.00;;;;;;;;;;5030284;28;20244;-36
2022/11/09 09:45:58;;;;;;;91.53;64.80;;;;;;;;;;5029846;28;20699;-36
2022/11/09 09:48:30;;;;;;;82.50;60.07;;;;;;;;;;5033190;28;20655;-36
2022/11/09 09:51:00;;;;;;;85.67;61.17;;;;;;;;;;5031457;28;20600;-36
2022/11/09 09:53:29;;;;;;;81.40;61.20;;;;;;;;;;5031785;28;20515;-37
2022/11/09 09:56:09;;;;;;;80.63;61.63;;;;;;;;;;5031317;28;20244;-36
2022/11/09 09:58:37;;;;;;;87.90;63.50;;;;;;;;;;5031501;28;20251;-36
2022/11/09 10:01:15;;;;;;;76.63;59.50;;;;;;;;;;5034372;28;20914;-36
2022/11/09 10:03:41;;;;;;;83.97;58.73;;;;;;;;;;5030023;28;20444;-37
2022/11/09 10:06:17;;;;;;;78.23;57.87;;;;;;;;;;5029394;28;20662;-37
2022/11/09 10:08:49;;;;;;;83.77;58.97;;;;;;;;;;5032856;28;20204;-37
2022/11/09 10:11:33;;;;;;;83.67;60.80;;;;;;;;;;5032433;28;20785;-36
2022/11/09 10:14:18;;;;;;;87.80;60.57;;;;;;;;;;5030591;28;20211;-37
2022/11/09 10:17:02;;;;;;;81.03;58.40;;;;;;;;;;5032683;28;20203;-37
2022/11/09 10:19:28;;;;;;;80.77;57.93;;;;;;;;;;5032703;28;20528;-37
2022/11/09 10:21:57;;;;;;;74.13;56.53;;;;;;;;;;5029282;28;20174;-37
2022/11/09 10:24:31;;;;;;;76.40;58.23;;;;;;;;;;5030704;28;20169;-37
2022/11/09 10:26:58;;;;;;;72.63;56.30;;;;;;;;;;5032180;28;20180;-37
2022/11/09 10:29:24;;;;;;;83.70;58.90;;;;;;;;;;5030216;28;20595;-37
2022/11/09 10:31:52;;;;;;;78.67;58.60;;;;;;;;;;5026481;28;20242;-37
2022/11/09 10:34:19;;;;;;;78.67;59.27;;;;;;;;;;5020885;28;20175;-37
2022/11/09 10:37:10;;;;;;;79.03;59.97;;;;;;;;;;5032191;28;20279;-36
2022/11/09 10:39:47;;;;;;;81.73;57.60;;;;;;;;;;5028067;28;20608;-37
2022/11/09 10:42:13;;;;;;;78.93;56.73;;;;;;;;;;5029446;28;20963;-37
2022/11/09 10:44:39;;;;;;;72.93;55.43;;;;;;;;;;5030483;28;20483;-36
2022/11/09 10:47:15;;;;;;;71.90;54.13;;;;;;;;;;5032925;28;20502;-37
2022/11/09 10:49:42;;;;;;;71.50;54.63;;;;;;;;;;5030355;28;20195;-36
2022/11/09 10:52:27;;;;;;;72.10;53.57;;;;;;;;;;5029426;28;20710;-36
2022/11/09 10:54:53;;;;;;;73.23;56.17;;;;;;;;;;5029660;28;20172;-37
2022/11/09 10:57:20;;;;;;;69.87;54.10;;;;;;;;;;5031063;28;20279;-38
2022/11/09 10:59:57;;;;;;;67.33;52.33;;;;;;;;;;5029138;28;20176;-37
2022/11/09 11:02:26;;;;;;;76.67;56.63;;;;;;;;;;5030273;28;20670;-36
2022/11/09 11:04:58;;;;;;;78.70;57.27;;;;;;;;;;5030831;28;20574;-37
2022/11/09 11:07:24;;;;;;;74.23;56.30;;;;;;;;;;5032757;28;20286;-36
2022/11/09 11:09:51;;;;;;;71.20;53.90;;;;;;;;;;5031236;28;20215;-37
2022/11/09 11:12:19;;;;;;;82.30;57.43;;;;;;;;;;5029971;28;20203;-37
2022/11/09 11:14:45;;;;;;;78.27;56.27;;;;;;;;;;5032411;28;20171;-37
2022/11/09 11:17:20;;;;;;;72.47;54.40;;;;;;;;;;5030503;28;20171;-37
2022/11/09 11:19:47;;;;;;;71.00;54.97;;;;;;;;;;5034587;28;20178;-37
2022/11/09 11:22:13;;;;;;;77.97;58.47;;;;;;;;;;5035854;28;20175;-37
2022/11/09 11:24:44;;;;;;;70.17;54.23;;;;;;;;;;5034897;28;20183;-37
2022/11/09 11:27:13;;;;;;;77.70;58.30;;;;;;;;;;5033849;28;20176;-36
2022/11/09 11:29:47;;;;;;;73.13;55.10;;;;;;;;;;5036192;28;20198;-36
2022/11/09 11:32:16;;;;;;;70.00;53.27;;;;;;;;;;5034508;28;20175;-36
2022/11/09 11:34:43;;;;;;;71.57;53.70;;;;;;;;;;5033798;28;20579;-37
2022/11/09 11:37:09;;;;;;;71.57;54.13;;;;;;;;;;5032526;28;20622;-37
2022/11/09 11:39:38;;;;;;;70.03;54.27;;;;;;;;;;5034516;28;20604;-37
2022/11/09 11:42:23;;;;;;;74.43;54.37;;;;;;;;;;5032650;28;20620;-38
2022/11/09 11:45:00;;;;;;;70.17;53.23;;;;;;;;;;5033493;28;20598;-37
2022/11/09 11:47:39;;;;;;;67.87;53.60;;;;;;;;;;5034724;28;20475;-37
2022/11/09 11:50:24;;;;;;;75.77;54.47;;;;;;;;;;5034478;28;20199;-37
2022/11/09 11:52:59;;;;;;;70.63;54.03;;;;;;;;;;5032784;28;20174;-36
2022/11/09 11:55:28;;;;;;;71.60;53.67;;;;;;;;;;5031534;28;20280;-37
2022/11/09 11:58:10;;;;;;;66.93;50.60;;;;;;;;;;5036717;28;20206;-36
2022/11/09 12:00:41;;;;;;;69.47;53.97;;;;;;;;;;5035685;28;20196;-37
2022/11/09 12:03:07;;;;;;;68.40;52.60;;;;;;;;;;5032018;28;20190;-36
2022/11/09 12:05:39;;;;;;;71.77;53.77;;;;;;;;;;5030691;28;20187;-37
2022/11/09 12:08:22;;;;;;;70.33;52.17;;;;;;;;;;5033782;28;20604;-36
2022/11/09 12:10:48;;;;;;;74.50;52.33;;;;;;;;;;5016572;28;20699;-36
2022/11/09 12:13:41;;;;;;;67.73;52.47;;;;;;;;;;5033816;28;20820;-37
2022/11/09 12:16:07;;;;;;;70.17;52.27;;;;;;;;;;5014902;28;20536;-36
2022/11/09 12:18:49;;;;;;;66.77;50.57;;;;;;;;;;5033966;28;20202;-36
2022/11/09 12:21:17;;;;;;;66.83;50.43;;;;;;;;;;5034487;28;20171;-37
2022/11/09 12:23:52;;;;;;;68.90;51.43;;;;;;;;;;5031364;28;20615;-37
2022/11/09 12:26:22;;;;;;;61.20;47.47;;;;;;;;;;5031001;28;20983;-36
2022/11/09 12:28:48;;;;;;;59.50;47.07;;;;;;;;;;5033908;28;20178;-36
2022/11/09 12:31:14;;;;;;;61.73;48.97;;;;;;;;;;5031226;28;20517;-36
2022/11/09 12:33:44;;;;;;;63.57;46.83;;;;;;;;;;5031919;28;20252;-36
2022/11/09 12:36:26;;;;;;;63.27;48.50;;;;;;;;;;5035585;28;20172;-37
2022/11/09 12:39:11;;;;;;;57.83;46.70;;;;;;;;;;5035135;28;20188;-37
2022/11/09 12:41:38;;;;;;;72.60;47.90;;;;;;;;;;5032200;28;20592;-37
2022/11/09 12:44:13;;;;;;;65.63;47.13;;;;;;;;;;5032354;28;20172;-37
2022/11/09 12:46:42;;;;;;;57.50;46.37;;;;;;;;;;5033692;28;20354;-37
2022/11/09 12:49:13;;;;;;;59.13;46.03;;;;;;;;;;5031764;28;20690;-37
2022/11/09 12:51:39;;;;;;;59.80;46.77;;;;;;;;;;5033989;28;20195;-37
2022/11/09 12:54:10;;;;;;;63.63;48.80;;;;;;;;;;5036257;28;20211;-37
2022/11/09 12:56:40;;;;;;;66.80;50.83;;;;;;;;;;5032708;28;20172;-37
2022/11/09 12:59:20;;;;;;;66.70;49.57;;;;;;;;;;5032518;28;20179;-37
2022/11/09 13:01:47;;;;;;;66.77;49.00;;;;;;;;;;5034512;28;20485;-37
2022/11/09 13:04:17;;;;;;;64.53;50.23;;;;;;;;;;5033693;28;21147;-37
2022/11/09 13:07:03;;;;;;;61.90;49.10;;;;;;;;;;5029733;28;20659;-38
2022/11/09 13:09:29;;;;;;;66.13;49.37;;;;;;;;;;5029607;28;20522;-36
2022/11/09 13:11:55;;;;;;;65.47;49.50;;;;;;;;;;5020850;28;20172;-37
2022/11/09 13:14:21;;;;;;;63.83;49.03;;;;;;;;;;5033477;28;20714;-38
2022/11/09 13:16:51;;;;;;;68.63;51.70;;;;;;;;;;5031765;28;20517;-37
2022/11/09 13:19:36;;;;;;;68.77;49.00;;;;;;;;;;5032009;28;20364;-37
2022/11/09 13:22:11;;;;;;;62.03;49.90;;;;;;;;;;5034652;28;20567;-37
2022/11/09 13:24:52;;;;;;;64.20;49.80;;;;;;;;;;5031380;28;20618;-38
2022/11/09 13:27:33;;;;;;;66.13;50.93;;;;;;;;;;5031592;28;20191;-38
2022/11/09 13:30:00;;;;;;;71.37;55.20;;;;;;;;;;5033896;28;20234;-38
2022/11/09 13:32:28;;;;;;;75.13;57.50;;;;;;;;;;5033807;28;20179;-37
2022/11/09 13:34:57;;;;;;;77.10;59.23;;;;;;;;;;5032901;28;20595;-38
2022/11/09 13:37:36;;;;;;;76.10;59.93;;;;;;;;;;5031737;28;20168;-37
2022/11/09 13:40:20;;;;;;;81.57;62.23;;;;;;;;;;5031702;28;20175;-37
2022/11/09 13:42:55;;;;;;;81.00;61.77;;;;;;;;;;5032242;28;20179;-38
2022/11/09 13:45:24;;;;;;;84.23;64.87;;;;;;;;;;5033026;28;20178;-37
2022/11/09 13:47:51;;;;;;;77.67;61.90;;;;;;;;;;5034891;28;20215;-37
2022/11/09 13:50:24;;;;;;;81.43;63.37;;;;;;;;;;5032888;28;20206;-37
2022/11/09 13:52:51;;;;;;;83.30;65.47;;;;;;;;;;5020824;28;21000;-38
2022/11/09 13:55:24;;;;;;;79.40;59.93;;;;;;;;;;5035493;28;20283;-39
2022/11/09 13:57:51;;;;;;;77.57;62.27;;;;;;;;;;5035727;28;20768;-37
2022/11/09 14:00:24;;;;;;;85.87;64.60;;;;;;;;;;5036692;28;20303;-38
2022/11/09 14:02:54;;;;;;;84.57;65.40;;;;;;;;;;5032156;28;20405;-37
2022/11/09 14:05:28;;;;;;;88.43;64.43;;;;;;;;;;5031732;28;21053;-37
2022/11/09 14:07:54;;;;;;;91.50;67.47;;;;;;;;;;5035698;28;20256;-37
2022/11/09 14:10:26;;;;;;;83.53;65.87;;;;;;;;;;5033408;28;20318;-37
2022/11/09 14:13:11;;;;;;;89.53;65.77;;;;;;;;;;5032995;28;20171;-36
2022/11/09 14:15:43;;;;;;;81.90;62.73;;;;;;;;;;5033281;28;20351;-37